sensor_id;sensor_type;location;lat;lon;timestamp;pressure;altitude;pressure_sealevel;temperature;humidity
77351;BME280;66420;50.246;14.320;2023-02-01T00:02:25;99538.72;;;3.93;69.16
77351;BME280;66420;50.246;14.320;2023-02-01T00:05:09;99526.22;;;3.82;69.19
77351;BME280;66420;50.246;14.320;2023-02-01T00:07:54;99535.41;;;3.86;68.90
77351;BME280;66420;50.246;14.320;2023-02-01T00:10:39;99531.53;;;3.67;69.63
77351;BME280;66420;50.246;14.320;2023-02-01T00:13:23;99535.88;;;3.63;69.94
77351;BME280;66420;50.246;14.320;2023-02-01T00:16:22;99528.06;;;3.66;70.12
77351;BME280;66420;50.246;14.320;2023-02-01T00:19:11;99530.44;;;3.52;71.05
77351;BME280;66420;50.246;14.320;2023-02-01T00:21:56;99533.09;;;3.47;70.80
77351;BME280;66420;50.246;14.320;2023-02-01T00:24:40;99538.53;;;3.57;70.19
77351;BME280;66420;50.246;14.320;2023-02-01T00:27:25;99532.84;;;3.54;70.34
77351;BME280;66420;50.246;14.320;2023-02-01T00:30:10;99549.88;;;3.49;70.85
77351;BME280;66420;50.246;14.320;2023-02-01T00:32:55;99537.69;;;3.47;71.67
77351;BME280;66420;50.246;14.320;2023-02-01T00:35:39;99537.97;;;3.50;71.39
77351;BME280;66420;50.246;14.320;2023-02-01T00:38:25;99538.19;;;3.44;72.37
77351;BME280;66420;50.246;14.320;2023-02-01T00:41:15;99515.78;;;3.43;72.86
77351;BME280;66420;50.246;14.320;2023-02-01T00:44:01;99526.28;;;3.40;73.34
77351;BME280;66420;50.246;14.320;2023-02-01T00:46:46;99518.69;;;3.37;73.76
77351;BME280;66420;50.246;14.320;2023-02-01T00:49:30;99521.13;;;3.33;73.70
77351;BME280;66420;50.246;14.320;2023-02-01T00:52:15;99527.38;;;3.44;73.61
77351;BME280;66420;50.246;14.320;2023-02-01T00:54:59;99524.94;;;3.37;73.78
77351;BME280;66420;50.246;14.320;2023-02-01T00:57:44;99537.34;;;3.33;74.63
77351;BME280;66420;50.246;14.320;2023-02-01T01:00:28;99523.81;;;3.33;74.47
77351;BME280;66420;50.246;14.320;2023-02-01T01:03:13;99542.28;;;3.46;74.14
77351;BME280;66420;50.246;14.320;2023-02-01T01:06:06;99553.94;;;3.47;73.92
77351;BME280;66420;50.246;14.320;2023-02-01T01:08:52;99560.13;;;3.42;74.58
77351;BME280;66420;50.246;14.320;2023-02-01T01:11:38;99545.03;;;3.51;73.89
77351;BME280;66420;50.246;14.320;2023-02-01T01:14:23;99547.16;;;3.49;73.81
77351;BME280;66420;50.246;14.320;2023-02-01T01:17:07;99552.56;;;3.49;74.18
77351;BME280;66420;50.246;14.320;2023-02-01T01:19:52;99552.00;;;3.42;74.13
77351;BME280;66420;50.246;14.320;2023-02-01T01:22:36;99552.25;;;3.41;74.77
77351;BME280;66420;50.246;14.320;2023-02-01T01:25:21;99544.94;;;3.36;75.00
77351;BME280;66420;50.246;14.320;2023-02-01T01:28:06;99546.28;;;3.34;75.04
77351;BME280;66420;50.246;14.320;2023-02-01T01:30:51;99549.81;;;3.39;74.80
77351;BME280;66420;50.246;14.320;2023-02-01T01:33:36;99541.75;;;3.49;73.24
77351;BME280;66420;50.246;14.320;2023-02-01T01:36:21;99545.53;;;3.43;73.26
77351;BME280;66420;50.246;14.320;2023-02-01T01:39:06;99546.66;;;3.52;72.89
77351;BME280;66420;50.246;14.320;2023-02-01T01:41:51;99553.41;;;3.50;72.67
77351;BME280;66420;50.246;14.320;2023-02-01T01:47:44;99548.81;;;3.50;72.57
77351;BME280;66420;50.246;14.320;2023-02-01T01:50:42;99549.94;;;3.60;71.27
77351;BME280;66420;50.246;14.320;2023-02-01T01:53:37;99554.00;;;3.67;70.80
77351;BME280;66420;50.246;14.320;2023-02-01T01:56:23;99551.06;;;3.69;69.56
77351;BME280;66420;50.246;14.320;2023-02-01T01:59:09;99544.53;;;3.65;69.72
77351;BME280;66420;50.246;14.320;2023-02-01T02:01:55;99547.34;;;3.80;68.12
77351;BME280;66420;50.246;14.320;2023-02-01T02:04:39;99546.28;;;3.96;66.67
77351;BME280;66420;50.246;14.320;2023-02-01T02:07:28;99557.81;;;3.66;68.48
77351;BME280;66420;50.246;14.320;2023-02-01T02:10:14;99555.94;;;3.72;68.31
77351;BME280;66420;50.246;14.320;2023-02-01T02:12:59;99548.84;;;3.61;68.12
77351;BME280;66420;50.246;14.320;2023-02-01T02:37:42;99575.44;;;3.74;65.68
77351;BME280;66420;50.246;14.320;2023-02-01T02:40:40;99571.66;;;3.75;65.67
77351;BME280;66420;50.246;14.320;2023-02-01T02:43:49;99570.66;;;3.96;64.34
77351;BME280;66420;50.246;14.320;2023-02-01T02:47:01;99567.41;;;3.99;63.94
77351;BME280;66420;50.246;14.320;2023-02-01T02:53:15;99554.69;;;3.99;64.58
77351;BME280;66420;50.246;14.320;2023-02-01T02:56:21;99557.13;;;3.96;64.34
77351;BME280;66420;50.246;14.320;2023-02-01T02:59:28;99554.13;;;3.92;64.34
77351;BME280;66420;50.246;14.320;2023-02-01T03:02:32;99549.03;;;4.01;63.96
77351;BME280;66420;50.246;14.320;2023-02-01T03:05:41;99552.78;;;3.95;64.99
77351;BME280;66420;50.246;14.320;2023-02-01T03:08:30;99541.94;;;3.85;65.41
77351;BME280;66420;50.246;14.320;2023-02-01T03:11:15;99541.38;;;3.83;66.50
77351;BME280;66420;50.246;14.320;2023-02-01T03:14:02;99539.75;;;3.82;66.08
77351;BME280;66420;50.246;14.320;2023-02-01T03:16:52;99542.16;;;3.73;67.39
77351;BME280;66420;50.246;14.320;2023-02-01T03:19:43;99544.31;;;3.76;67.30
77351;BME280;66420;50.246;14.320;2023-02-01T03:22:35;99532.38;;;3.72;67.22
77351;BME280;66420;50.246;14.320;2023-02-01T03:25:27;99525.03;;;3.63;68.51
77351;BME280;66420;50.246;14.320;2023-02-01T03:28:15;99518.81;;;3.62;68.21
77351;BME280;66420;50.246;14.320;2023-02-01T03:31:04;99517.47;;;3.65;68.64
77351;BME280;66420;50.246;14.320;2023-02-01T03:33:52;99518.03;;;3.62;68.52
77351;BME280;66420;50.246;14.320;2023-02-01T03:36:50;99516.91;;;3.52;69.24
77351;BME280;66420;50.246;14.320;2023-02-01T03:39:41;99504.72;;;3.55;68.78
77351;BME280;66420;50.246;14.320;2023-02-01T03:42:38;99509.84;;;3.51;69.48
77351;BME280;66420;50.246;14.320;2023-02-01T03:45:29;99503.59;;;3.46;69.51
77351;BME280;66420;50.246;14.320;2023-02-01T03:48:17;99510.34;;;3.48;68.80
77351;BME280;66420;50.246;14.320;2023-02-01T03:51:04;99517.38;;;3.44;68.98
77351;BME280;66420;50.246;14.320;2023-02-01T03:53:50;99515.78;;;3.43;69.10
77351;BME280;66420;50.246;14.320;2023-02-01T03:56:37;99515.25;;;3.46;68.65
77351;BME280;66420;50.246;14.320;2023-02-01T03:59:22;99521.41;;;3.37;69.14
77351;BME280;66420;50.246;14.320;2023-02-01T04:02:08;99537.34;;;3.33;69.53
77351;BME280;66420;50.246;14.320;2023-02-01T04:04:53;99530.59;;;3.36;68.93
77351;BME280;66420;50.246;14.320;2023-02-01T04:07:37;99533.84;;;3.33;68.68
77351;BME280;66420;50.246;14.320;2023-02-01T04:10:22;99529.47;;;3.27;68.96
77351;BME280;66420;50.246;14.320;2023-02-01T04:13:07;99524.06;;;3.27;69.40
77351;BME280;66420;50.246;14.320;2023-02-01T04:15:51;99524.81;;;3.17;69.29
77351;BME280;66420;50.246;14.320;2023-02-01T04:18:36;99528.59;;;3.21;69.12
77351;BME280;66420;50.246;14.320;2023-02-01T04:21:21;99509.72;;;3.26;68.58
77351;BME280;66420;50.246;14.320;2023-02-01T04:24:06;99518.31;;;3.18;68.66
77351;BME280;66420;50.246;14.320;2023-02-01T04:26:50;99515.09;;;3.21;68.41
77351;BME280;66420;50.246;14.320;2023-02-01T04:29:35;99512.38;;;3.21;68.42
77351;BME280;66420;50.246;14.320;2023-02-01T04:32:19;99511.06;;;3.24;68.28
77351;BME280;66420;50.246;14.320;2023-02-01T04:35:05;99506.41;;;3.14;68.94
77351;BME280;66420;50.246;14.320;2023-02-01T04:37:49;99503.66;;;3.09;68.88
77351;BME280;66420;50.246;14.320;2023-02-01T04:40:34;99490.72;;;3.11;68.74
77351;BME280;66420;50.246;14.320;2023-02-01T04:43:18;99487.94;;;3.01;69.74
77351;BME280;66420;50.246;14.320;2023-02-01T04:46:03;99484.50;;;3.10;68.78
77351;BME280;66420;50.246;14.320;2023-02-01T04:48:49;99476.63;;;3.09;69.17
77351;BME280;66420;50.246;14.320;2023-02-01T04:51:33;99476.63;;;3.09;69.62
77351;BME280;66420;50.246;14.320;2023-02-01T04:54:18;99471.72;;;3.01;70.16
77351;BME280;66420;50.246;14.320;2023-02-01T04:57:02;99467.41;;;3.05;70.10
77351;BME280;66420;50.246;14.320;2023-02-01T04:59:47;99459.84;;;3.02;70.02
77351;BME280;66420;50.246;14.320;2023-02-01T05:02:31;99470.44;;;3.13;70.08
77351;BME280;66420;50.246;14.320;2023-02-01T05:05:16;99467.97;;;3.12;69.97
77351;BME280;66420;50.246;14.320;2023-02-01T05:08:01;99470.47;;;3.19;69.78
77351;BME280;66420;50.246;14.320;2023-02-01T05:10:45;99465.56;;;3.10;70.20
77351;BME280;66420;50.246;14.320;2023-02-01T05:13:30;99456.69;;;3.20;69.87
77351;BME280;66420;50.246;14.320;2023-02-01T05:16:33;99458.88;;;3.28;69.58
77351;BME280;66420;50.246;14.320;2023-02-01T05:19:18;99462.59;;;3.17;69.81
77351;BME280;66420;50.246;14.320;2023-02-01T05:22:02;99443.66;;;3.12;70.15
77351;BME280;66420;50.246;14.320;2023-02-01T05:24:47;99442.84;;;3.17;69.69
77351;BME280;66420;50.246;14.320;2023-02-01T05:27:31;99454.81;;;3.21;69.74
77351;BME280;66420;50.246;14.320;2023-02-01T05:30:16;99462.09;;;3.20;69.66
77351;BME280;66420;50.246;14.320;2023-02-01T05:33:02;99452.84;;;3.11;70.00
77351;BME280;66420;50.246;14.320;2023-02-01T05:35:47;99445.59;;;3.22;69.45
77351;BME280;66420;50.246;14.320;2023-02-01T05:38:32;99452.34;;;3.19;69.36
77351;BME280;66420;50.246;14.320;2023-02-01T05:41:16;99448.78;;;3.08;70.06
77351;BME280;66420;50.246;14.320;2023-02-01T05:44:01;99460.53;;;3.39;68.31
77351;BME280;66420;50.246;14.320;2023-02-01T05:46:47;99455.13;;;3.29;68.54
77351;BME280;66420;50.246;14.320;2023-02-01T05:49:31;99459.94;;;3.22;69.34
77351;BME280;66420;50.246;14.320;2023-02-01T05:52:16;99448.88;;;3.29;68.62
77351;BME280;66420;50.246;14.320;2023-02-01T05:55:04;99447.50;;;3.26;69.11
77351;BME280;66420;50.246;14.320;2023-02-01T05:57:48;99444.81;;;3.26;69.06
77351;BME280;66420;50.246;14.320;2023-02-01T06:00:33;99445.91;;;3.30;69.71
77351;BME280;66420;50.246;14.320;2023-02-01T06:03:17;99441.28;;;3.26;69.97
77351;BME280;66420;50.246;14.320;2023-02-01T06:06:02;99442.13;;;3.31;69.93
77351;BME280;66420;50.246;14.320;2023-02-01T06:08:47;99426.72;;;3.32;69.83
77351;BME280;66420;50.246;14.320;2023-02-01T06:11:31;99423.47;;;3.30;70.27
77351;BME280;66420;50.246;14.320;2023-02-01T06:14:16;99418.84;;;3.30;70.53
77351;BME280;66420;50.246;14.320;2023-02-01T06:17:00;99415.06;;;3.26;70.88
77351;BME280;66420;50.246;14.320;2023-02-01T06:19:45;99422.03;;;3.17;72.43
77351;BME280;66420;50.246;14.320;2023-02-01T06:22:29;99420.47;;;3.31;70.95
77351;BME280;66420;50.246;14.320;2023-02-01T06:25:14;99419.38;;;3.22;71.90
77351;BME280;66420;50.246;14.320;2023-02-01T06:28:02;99412.91;;;3.28;71.68
77351;BME280;66420;50.246;14.320;2023-02-01T06:30:47;99416.66;;;3.22;72.24
77351;BME280;66420;50.246;14.320;2023-02-01T06:33:33;99415.03;;;3.21;72.51
77351;BME280;66420;50.246;14.320;2023-02-01T06:36:18;99410.97;;;3.19;72.68
77351;BME280;66420;50.246;14.320;2023-02-01T06:39:05;99403.13;;;3.17;72.55
77351;BME280;66420;50.246;14.320;2023-02-01T06:41:50;99405.28;;;3.15;72.77
77351;BME280;66420;50.246;14.320;2023-02-01T06:44:34;99410.13;;;3.13;73.42
77351;BME280;66420;50.246;14.320;2023-02-01T06:47:19;99396.34;;;3.09;73.08
77351;BME280;66420;50.246;14.320;2023-02-01T06:50:04;99407.69;;;3.06;74.04
77351;BME280;66420;50.246;14.320;2023-02-01T06:52:48;99403.63;;;3.09;73.60
77351;BME280;66420;50.246;14.320;2023-02-01T06:55:33;99399.00;;;3.04;74.27
77351;BME280;66420;50.246;14.320;2023-02-01T06:58:17;99400.38;;;3.02;74.30
77351;BME280;66420;50.246;14.320;2023-02-01T07:01:06;99398.94;;;2.94;74.75
77351;BME280;66420;50.246;14.320;2023-02-01T07:03:51;99400.63;;;3.00;74.62
77351;BME280;66420;50.246;14.320;2023-02-01T07:06:35;99396.03;;;3.01;74.86
77351;BME280;66420;50.246;14.320;2023-02-01T07:09:20;99398.72;;;3.01;75.00
77351;BME280;66420;50.246;14.320;2023-02-01T07:12:05;99396.00;;;2.96;75.49
77351;BME280;66420;50.246;14.320;2023-02-01T07:14:49;99403.06;;;3.02;75.21
77351;BME280;66420;50.246;14.320;2023-02-01T07:17:34;99390.03;;;2.94;75.50
77351;BME280;66420;50.246;14.320;2023-02-01T07:20:18;99401.94;;;2.93;75.50
77351;BME280;66420;50.246;14.320;2023-02-01T07:23:03;99406.28;;;2.99;75.52
77351;BME280;66420;50.246;14.320;2023-02-01T07:25:47;99397.06;;;2.95;75.88
77351;BME280;66420;50.246;14.320;2023-02-01T07:28:34;99405.19;;;2.95;76.11
77351;BME280;66420;50.246;14.320;2023-02-01T07:31:19;99403.03;;;2.97;76.12
77351;BME280;66420;50.246;14.320;2023-02-01T07:34:05;99411.97;;;2.97;76.02
77351;BME280;66420;50.246;14.320;2023-02-01T07:36:50;99403.03;;;2.97;76.37
77351;BME280;66420;50.246;14.320;2023-02-01T07:39:34;99404.16;;;3.06;75.67
77351;BME280;66420;50.246;14.320;2023-02-01T07:42:19;99399.88;;;3.15;74.81
77351;BME280;66420;50.246;14.320;2023-02-01T07:45:03;99402.59;;;3.20;74.46
77351;BME280;66420;50.246;14.320;2023-02-01T07:47:48;99405.34;;;3.25;73.81
77351;BME280;66420;50.246;14.320;2023-02-01T07:50:33;99396.41;;;3.25;74.09
77351;BME280;66420;50.246;14.320;2023-02-01T07:53:18;99403.72;;;3.29;74.01
77351;BME280;66420;50.246;14.320;2023-02-01T07:56:03;99390.19;;;3.29;73.55
77351;BME280;66420;50.246;14.320;2023-02-01T07:58:52;99394.53;;;3.35;73.71
77351;BME280;66420;50.246;14.320;2023-02-01T08:01:38;99380.72;;;3.32;73.92
77351;BME280;66420;50.246;14.320;2023-02-01T08:04:23;99379.41;;;3.39;73.63
77351;BME280;66420;50.246;14.320;2023-02-01T08:07:07;99375.34;;;3.37;74.40
77351;BME280;66420;50.246;14.320;2023-02-01T08:09:52;99378.31;;;3.40;74.13
77351;BME280;66420;50.246;14.320;2023-02-01T08:12:37;99378.09;;;3.47;73.90
77351;BME280;66420;50.246;14.320;2023-02-01T08:15:21;99375.09;;;3.43;74.15
77351;BME280;66420;50.246;14.320;2023-02-01T08:18:06;99375.66;;;3.50;73.40
77351;BME280;66420;50.246;14.320;2023-02-01T08:20:50;99366.47;;;3.51;74.06
77351;BME280;66420;50.246;14.320;2023-02-01T08:23:36;99361.56;;;3.48;74.45
77351;BME280;66420;50.246;14.320;2023-02-01T08:26:25;99365.38;;;3.52;73.76
77351;BME280;66420;50.246;14.320;2023-02-01T08:29:10;99354.56;;;3.52;73.74
77351;BME280;66420;50.246;14.320;2023-02-01T08:31:56;99359.97;;;3.57;73.35
77351;BME280;66420;50.246;14.320;2023-02-01T08:34:41;99354.03;;;3.61;73.22
77351;BME280;66420;50.246;14.320;2023-02-01T08:37:25;99356.19;;;3.69;73.21
77351;BME280;66420;50.246;14.320;2023-02-01T08:40:10;99352.44;;;3.80;72.13
77351;BME280;66420;50.246;14.320;2023-02-01T08:42:55;99352.72;;;3.93;71.82
77351;BME280;66420;50.246;14.320;2023-02-01T08:45:40;99352.97;;;3.97;71.83
77351;BME280;66420;50.246;14.320;2023-02-01T08:48:25;99363.00;;;4.07;70.27
77351;BME280;66420;50.246;14.320;2023-02-01T08:51:12;99356.50;;;4.03;70.26
77351;BME280;66420;50.246;14.320;2023-02-01T08:53:57;99355.66;;;4.17;69.03
77351;BME280;66420;50.246;14.320;2023-02-01T08:56:41;99344.31;;;4.25;69.16
77351;BME280;66420;50.246;14.320;2023-02-01T08:59:26;99345.38;;;4.39;69.08
77351;BME280;66420;50.246;14.320;2023-02-01T09:02:15;99346.97;;;4.51;68.59
77351;BME280;66420;50.246;14.320;2023-02-01T09:05:00;99347.53;;;4.47;68.67
77351;BME280;66420;50.246;14.320;2023-02-01T09:07:44;99335.59;;;4.54;67.55
77351;BME280;66420;50.246;14.320;2023-02-01T09:10:30;99333.16;;;4.52;67.94
77351;BME280;66420;50.246;14.320;2023-02-01T09:13:15;99339.66;;;4.51;68.13
77351;BME280;66420;50.246;14.320;2023-02-01T09:15:59;99339.41;;;4.42;67.09
77351;BME280;66420;50.246;14.320;2023-02-01T09:18:44;99343.75;;;4.49;66.71
77351;BME280;66420;50.246;14.320;2023-02-01T09:21:29;99325.59;;;4.49;67.27
77351;BME280;66420;50.246;14.320;2023-02-01T09:24:13;99334.81;;;4.43;66.86
77351;BME280;66420;50.246;14.320;2023-02-01T09:26:58;99341.56;;;4.51;66.70
77351;BME280;66420;50.246;14.320;2023-02-01T09:29:43;99330.19;;;4.54;67.35
77351;BME280;66420;50.246;14.320;2023-02-01T09:32:27;99340.47;;;4.57;66.67
77351;BME280;66420;50.246;14.320;2023-02-01T09:35:12;99331.50;;;4.61;65.59
77351;BME280;66420;50.246;14.320;2023-02-01T09:37:56;99326.31;;;4.70;64.50
77351;BME280;66420;50.246;14.320;2023-02-01T09:40:44;99326.84;;;4.77;63.52
77351;BME280;66420;50.246;14.320;2023-02-01T09:46:46;99315.16;;;4.81;61.90
77351;BME280;66420;50.246;14.320;2023-02-01T09:49:33;99321.41;;;4.82;62.60
77351;BME280;66420;50.246;14.320;2023-02-01T09:52:27;99316.53;;;4.84;62.26
77351;BME280;66420;50.246;14.320;2023-02-01T09:55:18;99309.72;;;4.86;62.37
77351;BME280;66420;50.246;14.320;2023-02-01T09:58:09;99320.25;;;4.98;61.55
77351;BME280;66420;50.246;14.320;2023-02-01T10:00:59;99312.41;;;4.97;61.81
77351;BME280;66420;50.246;14.320;2023-02-01T10:03:44;99328.91;;;5.00;61.72
77351;BME280;66420;50.246;14.320;2023-02-01T10:13:09;99342.75;;;5.04;60.73
77351;BME280;66420;50.246;14.320;2023-02-01T10:22:29;99347.75;;;4.66;64.85
77351;BME280;66420;50.246;14.320;2023-02-01T10:25:40;99334.50;;;4.50;67.76
77351;BME280;66420;50.246;14.320;2023-02-01T10:28:34;99339.66;;;4.46;68.76
77351;BME280;66420;50.246;14.320;2023-02-01T10:31:22;99335.63;;;4.43;68.62
77351;BME280;66420;50.246;14.320;2023-02-01T10:34:27;99331.28;;;4.47;68.05
77351;BME280;66420;50.246;14.320;2023-02-01T10:37:20;99343.75;;;4.38;68.49
77351;BME280;66420;50.246;14.320;2023-02-01T10:40:18;99349.72;;;4.30;69.92
77351;BME280;66420;50.246;14.320;2023-02-01T10:43:05;99351.34;;;4.16;71.07
77351;BME280;66420;50.246;14.320;2023-02-01T10:45:50;99341.06;;;4.08;73.26
77351;BME280;66420;50.246;14.320;2023-02-01T10:48:34;99328.06;;;4.05;72.60
77351;BME280;66420;50.246;14.320;2023-02-01T10:51:27;99330.22;;;4.08;71.58
77351;BME280;66420;50.246;14.320;2023-02-01T10:54:19;99322.09;;;4.08;72.48
77351;BME280;66420;50.246;14.320;2023-02-01T10:57:10;99330.25;;;4.03;73.16
77351;BME280;66420;50.246;14.320;2023-02-01T10:59:56;99329.13;;;4.04;72.57
77351;BME280;66420;50.246;14.320;2023-02-01T11:02:40;99316.69;;;4.08;72.25
77351;BME280;66420;50.246;14.320;2023-02-01T11:05:24;99309.63;;;4.22;71.79
77351;BME280;66420;50.246;14.320;2023-02-01T11:08:15;99321.28;;;4.28;70.24
77351;BME280;66420;50.246;14.320;2023-02-01T11:11:03;99310.97;;;4.35;69.91
77351;BME280;66420;50.246;14.320;2023-02-01T11:13:54;99315.28;;;4.41;69.18
77351;BME280;66420;50.246;14.320;2023-02-01T11:16:39;99336.13;;;4.51;69.00
77351;BME280;66420;50.246;14.320;2023-02-01T11:19:25;99325.25;;;4.66;68.06
77351;BME280;66420;50.246;14.320;2023-02-01T11:22:11;99340.16;;;4.63;68.21
77351;BME280;66420;50.246;14.320;2023-02-01T11:24:56;99342.03;;;4.68;67.62
77351;BME280;66420;50.246;14.320;2023-02-01T11:27:41;99340.44;;;4.67;68.22
77351;BME280;66420;50.246;14.320;2023-02-01T11:30:33;99338.81;;;4.71;68.30
77351;BME280;66420;50.246;14.320;2023-02-01T11:33:20;99345.88;;;4.67;68.69
77351;BME280;66420;50.246;14.320;2023-02-01T11:36:16;99343.66;;;4.69;68.62
77351;BME280;66420;50.246;14.320;2023-02-01T11:42:14;99349.13;;;4.59;70.47
77351;BME280;66420;50.246;14.320;2023-02-01T11:45:19;99350.16;;;4.78;69.13
77351;BME280;66420;50.246;14.320;2023-02-01T11:48:15;99343.88;;;4.87;69.00
77351;BME280;66420;50.246;14.320;2023-02-01T11:51:27;99331.66;;;4.95;69.34
77351;BME280;66420;50.246;14.320;2023-02-01T11:57:39;99341.38;;;5.11;67.20
77351;BME280;66420;50.246;14.320;2023-02-01T12:00:55;99339.22;;;5.08;67.75
77351;BME280;66420;50.246;14.320;2023-02-01T12:07:11;99328.91;;;5.05;67.88
77351;BME280;66420;50.246;14.320;2023-02-01T12:10:05;99331.59;;;5.10;67.61
77351;BME280;66420;50.246;14.320;2023-02-01T12:13:16;99332.38;;;5.21;66.53
77351;BME280;66420;50.246;14.320;2023-02-01T12:16:35;99340.66;;;5.45;64.22
77351;BME280;66420;50.246;14.320;2023-02-01T12:47:30;99321.34;;;5.02;65.83
77351;BME280;66420;50.246;14.320;2023-02-01T12:50:25;99319.56;;;5.31;65.56
77351;BME280;66420;50.246;14.320;2023-02-01T12:53:31;99298.63;;;5.76;62.46
77351;BME280;66420;50.246;14.320;2023-02-01T13:05:59;99283.03;;;6.49;60.33
77351;BME280;66420;50.246;14.320;2023-02-01T13:12:13;99277.13;;;6.66;58.64
77351;BME280;66420;50.246;14.320;2023-02-01T13:15:23;99294.56;;;6.41;57.79
77351;BME280;66420;50.246;14.320;2023-02-01T13:18:14;99286.00;;;6.24;58.19
77351;BME280;66420;50.246;14.320;2023-02-01T13:21:14;99283.41;;;6.38;57.80
77351;BME280;66420;50.246;14.320;2023-02-01T13:24:00;99294.28;;;6.38;56.93
77351;BME280;66420;50.246;14.320;2023-02-01T13:26:45;99303.63;;;6.32;56.61
77351;BME280;66420;50.246;14.320;2023-02-01T13:29:31;99290.13;;;6.21;57.54
77351;BME280;66420;50.246;14.320;2023-02-01T13:32:29;99287.75;;;6.10;57.26
77351;BME280;66420;50.246;14.320;2023-02-01T13:38:52;99293.56;;;6.03;57.59
77351;BME280;66420;50.246;14.320;2023-02-01T13:44:42;99282.16;;;6.01;58.08
77351;BME280;66420;50.246;14.320;2023-02-01T13:47:32;99284.31;;;6.04;57.32
77351;BME280;66420;50.246;14.320;2023-02-01T13:50:22;99289.41;;;6.11;55.97
77351;BME280;66420;50.246;14.320;2023-02-01T13:56:01;99280.47;;;6.05;55.85
77351;BME280;66420;50.246;14.320;2023-02-01T13:58:48;99269.38;;;6.02;55.90
77351;BME280;66420;50.246;14.320;2023-02-01T14:01:34;99272.47;;;5.90;56.96
77351;BME280;66420;50.246;14.320;2023-02-01T14:04:45;99274.03;;;5.96;56.74
77351;BME280;66420;50.246;14.320;2023-02-01T14:07:30;99276.28;;;5.89;57.34
77351;BME280;66420;50.246;14.320;2023-02-01T14:13:41;99284.94;;;5.91;58.53
77351;BME280;66420;50.246;14.320;2023-02-01T14:16:25;99279.25;;;5.93;58.61
77351;BME280;66420;50.246;14.320;2023-02-01T14:19:28;99282.00;;;5.88;59.67
77351;BME280;66420;50.246;14.320;2023-02-01T14:25:16;99288.78;;;5.85;60.05
77351;BME280;66420;50.246;14.320;2023-02-01T14:28:11;99267.69;;;5.77;60.28
77351;BME280;66420;50.246;14.320;2023-02-01T14:30:57;99277.97;;;5.80;60.87
77351;BME280;66420;50.246;14.320;2023-02-01T14:33:43;99280.63;;;5.85;60.54
77351;BME280;66420;50.246;14.320;2023-02-01T14:36:40;99277.38;;;5.83;61.16
77351;BME280;66420;50.246;14.320;2023-02-01T14:39:33;99267.19;;;5.70;60.36
77351;BME280;66420;50.246;14.320;2023-02-01T14:42:26;99274.00;;;5.67;61.01
77351;BME280;66420;50.246;14.320;2023-02-01T14:50:56;99280.84;;;5.55;61.36
77351;BME280;66420;50.246;14.320;2023-02-01T14:53:41;99280.84;;;5.55;60.15
77351;BME280;66420;50.246;14.320;2023-02-01T14:56:28;99285.56;;;5.44;61.74
77351;BME280;66420;50.246;14.320;2023-02-01T14:59:15;99281.47;;;5.47;60.12
77351;BME280;66420;50.246;14.320;2023-02-01T15:02:01;99271.22;;;5.39;61.37
77351;BME280;66420;50.246;14.320;2023-02-01T15:04:56;99277.75;;;5.32;60.52
77351;BME280;66420;50.246;14.320;2023-02-01T15:07:40;99285.88;;;5.38;60.62
77351;BME280;66420;50.246;14.320;2023-02-01T15:10:25;99277.03;;;5.22;60.54
77351;BME280;66420;50.246;14.320;2023-02-01T15:13:21;99294.63;;;5.24;61.27
77351;BME280;66420;50.246;14.320;2023-02-01T15:16:14;99298.16;;;5.25;61.08
77351;BME280;66420;50.246;14.320;2023-02-01T15:19:10;99290.84;;;5.20;61.46
77351;BME280;66420;50.246;14.320;2023-02-01T15:21:57;99280.06;;;5.10;62.24
77351;BME280;66420;50.246;14.320;2023-02-01T15:24:42;99286.06;;;5.07;62.16
77351;BME280;66420;50.246;14.320;2023-02-01T15:27:28;99287.97;;;5.02;62.34
77351;BME280;66420;50.246;14.320;2023-02-01T15:30:33;99268.75;;;4.93;63.24
77351;BME280;66420;50.246;14.320;2023-02-01T15:33:19;99289.63;;;4.93;63.25
77351;BME280;66420;50.246;14.320;2023-02-01T15:36:10;99279.09;;;4.86;63.67
77351;BME280;66420;50.246;14.320;2023-02-01T15:42:12;99269.88;;;4.87;63.00
77351;BME280;66420;50.246;14.320;2023-02-01T15:45:03;99268.59;;;4.69;63.93
77351;BME280;66420;50.246;14.320;2023-02-01T15:47:48;99273.22;;;4.59;64.58
77351;BME280;66420;50.246;14.320;2023-02-01T15:50:39;99261.88;;;4.57;65.45
77351;BME280;66420;50.246;14.320;2023-02-01T15:53:25;99269.22;;;4.46;65.93
77351;BME280;66420;50.246;14.320;2023-02-01T15:56:15;99265.16;;;4.43;66.50
77351;BME280;66420;50.246;14.320;2023-02-01T15:59:02;99272.22;;;4.44;66.56
77351;BME280;66420;50.246;14.320;2023-02-01T16:01:48;99273.28;;;4.49;66.36
77351;BME280;66420;50.246;14.320;2023-02-01T16:04:33;99273.81;;;4.45;66.12
77351;BME280;66420;50.246;14.320;2023-02-01T16:07:33;99272.47;;;4.48;66.52
77351;BME280;66420;50.246;14.320;2023-02-01T16:10:27;99281.97;;;4.40;66.45
77351;BME280;66420;50.246;14.320;2023-02-01T16:13:13;99287.34;;;4.51;65.50
77351;BME280;66420;50.246;14.320;2023-02-01T16:15:57;99281.94;;;4.51;66.14
77351;BME280;66420;50.246;14.320;2023-02-01T16:18:43;99270.56;;;4.49;65.19
77351;BME280;66420;50.246;14.320;2023-02-01T16:21:28;99260.25;;;4.51;65.53
77351;BME280;66420;50.246;14.320;2023-02-01T16:24:12;99250.50;;;4.50;65.21
77351;BME280;66420;50.246;14.320;2023-02-01T16:26:57;99265.97;;;4.49;64.89
77351;BME280;66420;50.246;14.320;2023-02-01T16:29:42;99273.81;;;4.51;64.80
77351;BME280;66420;50.246;14.320;2023-02-01T16:32:27;99256.97;;;4.59;64.37
77351;BME280;66420;50.246;14.320;2023-02-01T16:35:16;99249.94;;;4.58;63.82
77351;BME280;66420;50.246;14.320;2023-02-01T16:38:07;99238.28;;;4.57;64.04
77351;BME280;66420;50.246;14.320;2023-02-01T16:40:57;99243.97;;;4.61;63.71
77351;BME280;66420;50.246;14.320;2023-02-01T16:43:42;99230.97;;;4.58;63.90
77351;BME280;66420;50.246;14.320;2023-02-01T16:46:32;99230.66;;;4.64;63.93
77351;BME280;66420;50.246;14.320;2023-02-01T16:49:23;99230.97;;;4.63;63.62
77351;BME280;66420;50.246;14.320;2023-02-01T16:52:17;99228.19;;;4.68;63.68